Time;durP1;ratioP1;P1;durP2;ratioP2;P2;SDS_P1;SDS_P2;PMS_P1;PMS_P2;Temp;Humidity;BMP_temperature;BMP_pressure;BME280_temperature;BME280_humidity;BME280_pressure;Samples;Min_cycle;Max_cycle;Signal;HPM_P1;HPM_P2
2024/01/04 00:00:25;;;;;;;2.30;1.02;;;8.30;99.90;;;;;;5006839;28;20038;-62
2024/01/04 00:02:51;;;;;;;4.13;0.40;;;8.30;99.90;;;;;;5005931;28;20428;-60
2024/01/04 00:05:17;;;;;;;2.65;0.80;;;8.20;99.90;;;;;;5010165;28;20026;-58
2024/01/04 00:07:43;;;;;;;4.40;0.60;;;8.20;99.90;;;;;;5004288;28;20030;-61
2024/01/04 00:10:09;;;;;;;4.40;1.10;;;8.20;99.90;;;;;;5010499;28;20435;-59
2024/01/04 00:12:35;;;;;;;2.63;0.77;;;8.20;99.90;;;;;;5007855;28;20538;-61
2024/01/04 00:15:03;;;;;;;5.45;1.02;;;8.20;99.90;;;;;;4992053;28;20034;-60
2024/01/04 00:17:29;;;;;;;6.63;1.00;;;8.30;99.90;;;;;;5009926;28;20018;-61
2024/01/04 00:19:55;;;;;;;3.92;0.70;;;8.40;99.90;;;;;;5009114;28;20507;-62
2024/01/04 00:22:20;;;;;;;3.65;1.00;;;8.40;99.90;;;;;;5008104;28;20037;-60
2024/01/04 00:24:46;;;;;;;5.93;1.25;;;8.40;99.90;;;;;;5009130;28;20036;-58
2024/01/04 00:27:11;;;;;;;8.43;1.40;;;8.40;99.90;;;;;;5005824;28;20038;-62
2024/01/04 00:29:37;;;;;;;3.80;1.55;;;8.50;99.90;;;;;;5009344;28;20037;-59
2024/01/04 00:32:02;;;;;;;9.30;2.00;;;8.50;99.90;;;;;;5010292;28;20018;-60
2024/01/04 00:34:28;;;;;;;9.05;2.08;;;8.60;99.90;;;;;;5008656;28;20405;-60
2024/01/04 00:36:53;;;;;;;6.38;1.83;;;8.60;99.90;;;;;;5005188;28;20030;-62
2024/01/04 00:39:22;;;;;;;11.50;2.70;;;8.60;99.90;;;;;;5003630;28;20038;-59
2024/01/04 00:41:48;;;;;;;6.70;1.95;;;8.60;99.90;;;;;;5005857;28;20026;-59
2024/01/04 00:44:13;;;;;;;8.75;1.83;;;8.70;99.90;;;;;;5006804;28;20543;-60
2024/01/04 00:46:39;;;;;;;5.97;1.40;;;8.70;99.90;;;;;;5007098;28;20048;-62
2024/01/04 00:49:04;;;;;;;9.85;1.83;;;8.70;99.90;;;;;;5009509;28;20033;-61
2024/01/04 00:51:30;;;;;;;6.88;1.80;;;8.70;99.90;;;;;;5007023;28;20029;-60
2024/01/04 00:53:55;;;;;;;7.60;1.70;;;8.70;99.90;;;;;;5007388;28;20033;-57
2024/01/04 00:56:21;;;;;;;4.75;1.13;;;8.70;99.90;;;;;;5005801;28;20018;-62
2024/01/04 00:58:46;;;;;;;4.75;1.10;;;8.60;99.90;;;;;;5009390;28;20056;-62
2024/01/04 01:01:12;;;;;;;3.45;1.00;;;8.60;99.90;;;;;;5005575;28;20434;-56
2024/01/04 01:03:38;;;;;;;4.25;1.98;;;8.60;99.90;;;;;;5003700;28;20513;-58
2024/01/04 01:06:03;;;;;;;4.38;1.42;;;8.60;99.90;;;;;;5004275;28;20048;-61
2024/01/04 01:08:29;;;;;;;7.20;1.35;;;8.60;99.90;;;;;;5009960;28;20034;-62
2024/01/04 01:10:54;;;;;;;6.85;1.23;;;8.60;99.90;;;;;;5008310;28;20101;-58
2024/01/04 01:13:20;;;;;;;3.78;1.50;;;8.70;99.90;;;;;;5007203;28;20365;-63
2024/01/04 01:15:49;;;;;;;8.85;1.92;;;8.60;99.90;;;;;;5007201;28;20492;-62
2024/01/04 01:18:14;;;;;;;6.53;1.35;;;8.60;99.90;;;;;;5002810;28;20018;-62
2024/01/04 01:20:40;;;;;;;6.53;1.48;;;8.70;99.90;;;;;;5008215;28;20103;-62
2024/01/04 01:23:05;;;;;;;10.88;2.25;;;8.70;99.90;;;;;;5006770;28;20053;-60
2024/01/04 01:25:31;;;;;;;14.77;2.33;;;8.70;99.90;;;;;;5006655;28;20037;-59
2024/01/04 01:27:56;;;;;;;5.30;1.65;;;8.70;99.90;;;;;;5006775;28;20026;-60
2024/01/04 01:30:22;;;;;;;8.32;1.85;;;8.80;99.90;;;;;;5007561;28;20399;-61
2024/01/04 01:32:47;;;;;;;14.05;1.85;;;8.70;99.90;;;;;;5009306;28;20022;-60
2024/01/04 01:35:14;;;;;;;7.20;1.58;;;8.70;99.90;;;;;;5007081;28;20026;-62
2024/01/04 01:37:39;;;;;;;3.00;1.27;;;8.70;99.90;;;;;;5006479;28;20022;-62
2024/01/04 01:40:07;;;;;;;8.45;2.38;;;8.70;99.90;;;;;;5009926;28;20033;-61
2024/01/04 01:42:32;;;;;;;7.55;2.78;;;8.70;99.90;;;;;;4990526;28;20021;-60
2024/01/04 01:45:00;;;;;;;15.05;2.95;;;8.70;99.90;;;;;;5007630;28;20433;-57
2024/01/04 01:47:26;;;;;;;13.43;3.33;;;8.70;99.90;;;;;;5006761;28;20037;-62
2024/01/04 01:49:52;;;;;;;13.07;3.85;;;8.70;99.90;;;;;;4987963;28;20391;-62
2024/01/04 01:52:19;;;;;;;14.25;3.28;;;8.70;99.90;;;;;;5005924;28;20026;-61
2024/01/04 01:54:47;;;;;;;11.68;4.85;;;8.70;99.90;;;;;;5008603;28;20022;-61
2024/01/04 01:57:13;;;;;;;16.10;3.83;;;8.60;99.90;;;;;;5003635;28;20034;-60
2024/01/04 01:59:39;;;;;;;13.18;3.38;;;8.60;99.90;;;;;;5008558;28;20403;-60
2024/01/04 02:02:06;;;;;;;13.23;3.30;;;8.70;99.90;;;;;;5007381;28;20034;-60
2024/01/04 02:04:31;;;;;;;18.52;3.55;;;8.60;99.90;;;;;;5006402;28;20389;-61
2024/01/04 02:06:57;;;;;;;12.68;3.38;;;8.70;99.90;;;;;;5006170;28;20054;-60
2024/01/04 02:09:23;;;;;;;7.75;2.92;;;8.70;99.90;;;;;;5007096;28;20026;-63
2024/01/04 02:11:48;;;;;;;9.65;2.70;;;8.70;99.90;;;;;;4988843;28;20030;-62
2024/01/04 02:14:14;;;;;;;10.63;3.08;;;8.70;99.90;;;;;;5009426;28;20034;-61
2024/01/04 02:16:39;;;;;;;11.10;2.90;;;8.80;99.90;;;;;;5010144;28;20067;-57
2024/01/04 02:19:08;;;;;;;12.82;3.10;;;8.80;99.90;;;;;;5011381;28;20103;-61
2024/01/04 02:21:37;;;;;;;12.38;3.10;;;8.80;99.90;;;;;;5009733;28;20027;-60
2024/01/04 02:24:04;;;;;;;13.05;3.15;;;8.80;99.90;;;;;;5009407;28;20118;-59
2024/01/04 02:26:30;;;;;;;14.38;2.88;;;8.80;99.90;;;;;;5011471;28;20195;-62
2024/01/04 02:28:55;;;;;;;11.07;3.10;;;8.80;99.90;;;;;;5010236;28;20559;-60
2024/01/04 02:31:21;;;;;;;15.40;3.22;;;8.80;99.90;;;;;;5009885;28;20117;-59
2024/01/04 02:33:46;;;;;;;13.00;3.33;;;8.80;99.90;;;;;;5007469;28;20488;-60
2024/01/04 02:36:12;;;;;;;14.38;2.90;;;8.80;99.90;;;;;;5010064;28;20310;-61
2024/01/04 02:38:38;;;;;;;18.42;3.00;;;8.90;99.90;;;;;;5009693;28;20511;-61
2024/01/04 02:41:03;;;;;;;5.65;2.80;;;8.90;99.90;;;;;;5011230;28;20666;-61
2024/01/04 02:43:29;;;;;;;8.48;2.65;;;8.90;99.90;;;;;;5007036;28;20033;-60
2024/01/04 02:45:54;;;;;;;10.05;2.67;;;8.90;99.90;;;;;;5008893;28;20034;-61
2024/01/04 02:48:20;;;;;;;9.38;2.97;;;8.90;99.90;;;;;;5009074;28;20495;-63
2024/01/04 02:50:45;;;;;;;13.93;3.20;;;8.90;99.90;;;;;;5010943;28;20100;-61
2024/01/04 02:53:11;;;;;;;10.85;2.80;;;8.90;99.90;;;;;;5010580;28;20108;-60
2024/01/04 02:55:36;;;;;;;12.70;2.97;;;8.90;99.90;;;;;;5006978;28;20110;-59
2024/01/04 02:58:02;;;;;;;14.02;2.55;;;8.90;99.90;;;;;;5008463;28;20109;-62
2024/01/04 03:00:27;;;;;;;8.30;2.35;;;8.90;99.90;;;;;;5011804;28;20026;-62
2024/01/04 03:02:53;;;;;;;8.25;2.55;;;8.90;99.90;;;;;;5010120;28;20034;-63
2024/01/04 03:05:19;;;;;;;10.98;2.45;;;8.90;99.90;;;;;;5008763;28;20064;-61
2024/01/04 03:07:45;;;;;;;8.80;2.42;;;8.90;99.90;;;;;;5011785;28;20117;-62
2024/01/04 03:10:10;;;;;;;13.60;2.70;;;8.90;99.90;;;;;;5010405;28;20104;-61
2024/01/04 03:12:37;;;;;;;14.43;2.47;;;8.90;99.90;;;;;;5009273;28;20029;-62
2024/01/04 03:15:08;;;;;;;16.55;2.65;;;8.90;99.90;;;;;;5011300;28;20030;-62
2024/01/04 03:17:33;;;;;;;6.38;2.00;;;8.90;99.90;;;;;;5009056;28;20045;-62
2024/01/04 03:19:59;;;;;;;5.57;1.77;;;8.90;99.90;;;;;;5010398;28;20029;-62
2024/01/04 03:22:24;;;;;;;13.00;3.25;;;8.90;99.90;;;;;;5009258;28;20034;-63
2024/01/04 03:24:50;;;;;;;11.10;2.17;;;8.90;99.90;;;;;;5010342;28;20030;-61
2024/01/04 03:27:15;;;;;;;11.52;2.40;;;8.90;99.90;;;;;;5009993;28;20038;-61
2024/01/04 03:29:41;;;;;;;9.55;2.70;;;8.90;99.90;;;;;;5010204;28;20037;-62
2024/01/04 03:32:07;;;;;;;14.60;3.85;;;8.90;99.90;;;;;;5010914;28;20038;-60
2024/01/04 03:34:33;;;;;;;6.68;2.05;;;8.80;99.90;;;;;;5010827;28;20014;-62
2024/01/04 03:36:59;;;;;;;8.02;2.50;;;8.90;99.90;;;;;;5010595;28;20025;-64
2024/01/04 03:39:24;;;;;;;8.68;2.45;;;8.90;99.90;;;;;;5010201;28;20504;-62
2024/01/04 03:41:50;;;;;;;12.93;2.42;;;8.90;99.90;;;;;;5009307;28;20026;-61
2024/01/04 03:44:15;;;;;;;8.80;2.10;;;8.80;99.90;;;;;;5010756;28;20044;-59
2024/01/04 03:46:41;;;;;;;7.63;2.50;;;8.80;99.90;;;;;;5009146;28;20049;-60
2024/01/04 03:49:07;;;;;;;5.32;2.15;;;8.80;99.90;;;;;;5011289;28;20029;-60
2024/01/04 03:51:32;;;;;;;6.40;2.00;;;8.80;99.90;;;;;;5006130;28;20380;-59
2024/01/04 03:53:58;;;;;;;12.93;2.55;;;8.80;99.90;;;;;;5007525;28;20025;-60
2024/01/04 03:56:24;;;;;;;21.15;3.38;;;8.80;99.90;;;;;;4989236;28;20731;-61
2024/01/04 03:58:49;;;;;;;13.18;2.85;;;8.80;99.90;;;;;;5010177;28;20034;-60
2024/01/04 04:01:15;;;;;;;10.55;3.15;;;8.80;99.90;;;;;;5007548;28;20053;-60
2024/01/04 04:03:40;;;;;;;10.88;3.30;;;8.80;99.90;;;;;;5009559;28;20041;-62
2024/01/04 04:06:07;;;;;;;15.65;3.20;;;8.70;99.90;;;;;;5012341;28;20129;-61
2024/01/04 04:08:33;;;;;;;9.68;2.92;;;8.80;99.90;;;;;;4992895;28;20397;-60
2024/01/04 04:10:59;;;;;;;14.35;3.70;;;8.80;99.90;;;;;;5009710;28;20026;-61
2024/01/04 04:13:25;;;;;;;10.48;3.42;;;8.80;99.90;;;;;;5001380;28;20137;-61
2024/01/04 04:15:50;;;;;;;15.90;3.28;;;8.80;99.90;;;;;;5006497;28;20072;-61
2024/01/04 04:18:16;;;;;;;12.88;2.95;;;8.80;99.90;;;;;;5010591;28;20030;-61
2024/01/04 04:20:42;;;;;;;7.65;2.85;;;8.80;99.90;;;;;;5008426;28;20496;-61
2024/01/04 04:23:07;;;;;;;8.52;3.15;;;8.80;99.90;;;;;;5009333;28;20037;-59
2024/01/04 04:25:36;;;;;;;13.85;3.33;;;8.80;99.90;;;;;;5009610;28;20048;-59
2024/01/04 04:28:02;;;;;;;16.77;3.55;;;8.80;99.90;;;;;;5010377;28;20018;-59
2024/01/04 04:30:28;;;;;;;14.15;3.85;;;8.90;99.90;;;;;;5006712;28;22082;-62
2024/01/04 04:32:54;;;;;;;17.88;3.65;;;8.90;99.90;;;;;;5009486;28;20543;-58
2024/01/04 04:35:19;;;;;;;10.27;3.25;;;8.80;99.90;;;;;;5010703;28;20148;-60
2024/01/04 04:37:45;;;;;;;15.95;4.10;;;8.80;99.90;;;;;;5005453;28;20054;-61
2024/01/04 04:40:11;;;;;;;20.80;3.88;;;8.90;99.90;;;;;;5009088;28;20043;-61
2024/01/04 04:42:37;;;;;;;15.32;3.50;;;8.80;99.90;;;;;;5007651;28;20480;-62
2024/01/04 04:45:03;;;;;;;11.30;3.38;;;8.90;99.90;;;;;;5002801;28;20033;-62
2024/01/04 04:47:28;;;;;;;12.02;4.22;;;8.80;99.90;;;;;;5006439;28;20022;-61
2024/01/04 04:49:54;;;;;;;14.85;4.43;;;8.90;99.90;;;;;;5003101;28;20077;-62
2024/01/04 04:52:19;;;;;;;16.02;4.07;;;8.90;99.90;;;;;;5000624;28;20042;-63
2024/01/04 04:54:45;;;;;;;10.70;3.88;;;8.90;99.90;;;;;;5005117;28;20026;-60
2024/01/04 04:57:10;;;;;;;13.50;3.85;;;8.90;99.90;;;;;;5001184;28;20034;-63
2024/01/04 04:59:36;;;;;;;12.63;3.60;;;8.90;99.90;;;;;;5001347;28;20034;-62
2024/01/04 05:02:01;;;;;;;9.60;3.08;;;8.90;99.90;;;;;;5000209;28;20030;-62
2024/01/04 05:04:27;;;;;;;13.68;3.70;;;9.00;99.90;;;;;;4996922;28;20040;-59
2024/01/04 05:06:52;;;;;;;11.57;2.10;;;9.00;99.90;;;;;;5003991;28;20029;-61
2024/01/04 05:09:18;;;;;;;12.13;2.92;;;9.00;99.90;;;;;;4999554;28;20034;-62
2024/01/04 05:11:43;;;;;;;8.70;2.10;;;9.00;99.90;;;;;;5001184;28;20037;-60
2024/01/04 05:14:11;;;;;;;4.75;1.73;;;8.90;99.90;;;;;;5002644;28;20065;-59
2024/01/04 05:16:36;;;;;;;3.17;1.30;;;8.90;99.90;;;;;;5006927;28;20029;-60
2024/01/04 05:19:02;;;;;;;4.80;1.40;;;8.80;99.90;;;;;;5000780;28;20030;-58
2024/01/04 05:21:33;;;;;;;3.80;1.20;;;8.80;99.90;;;;;;5003649;28;20408;-60
2024/01/04 05:23:59;;;;;;;2.58;0.95;;;8.80;99.90;;;;;;5008793;28;20100;-61
2024/01/04 05:26:25;;;;;;;2.92;0.88;;;8.70;99.90;;;;;;5006695;28;20088;-60
2024/01/04 05:28:50;;;;;;;1.42;0.77;;;8.70;99.90;;;;;;4997422;28;20506;-59
2024/01/04 05:31:19;;;;;;;9.77;1.00;;;8.70;99.90;;;;;;4990096;28;20041;-60
2024/01/04 05:33:45;;;;;;;2.65;0.98;;;8.60;99.90;;;;;;4997793;28;20272;-61
2024/01/04 05:36:11;;;;;;;4.35;1.05;;;8.60;99.90;;;;;;4999229;28;20022;-62
2024/01/04 05:38:38;;;;;;;3.28;1.10;;;8.60;99.90;;;;;;5000220;28;20064;-62
2024/01/04 05:41:06;;;;;;;5.50;1.40;;;8.60;99.90;;;;;;5003879;28;20022;-61
2024/01/04 05:43:33;;;;;;;9.25;1.02;;;8.60;99.90;;;;;;4984532;28;20029;-63
2024/01/04 05:46:01;;;;;;;2.92;1.42;;;8.60;99.90;;;;;;4999491;28;20030;-61
2024/01/04 05:48:27;;;;;;;2.35;1.10;;;8.70;99.90;;;;;;5005063;28;20024;-60
2024/01/04 05:50:53;;;;;;;4.60;1.20;;;8.70;99.90;;;;;;5009670;28;20034;-62
2024/01/04 05:53:18;;;;;;;2.00;1.08;;;8.70;99.90;;;;;;5005166;28;20095;-63
2024/01/04 05:55:44;;;;;;;3.80;1.13;;;8.60;99.90;;;;;;5005375;28;20026;-62
2024/01/04 05:58:10;;;;;;;4.00;1.55;;;8.60;99.90;;;;;;5005989;28;20022;-62
2024/01/04 06:00:35;;;;;;;6.93;2.40;;;8.50;99.90;;;;;;5009295;28;20022;-61
2024/01/04 06:03:01;;;;;;;4.00;1.55;;;8.40;99.90;;;;;;5009480;28;20441;-63
2024/01/04 06:05:27;;;;;;;5.38;1.95;;;8.40;99.90;;;;;;5007044;28;20030;-62
2024/01/04 06:07:52;;;;;;;5.85;1.92;;;8.40;99.90;;;;;;5012262;28;20034;-61
2024/01/04 06:10:18;;;;;;;6.63;1.50;;;8.40;99.90;;;;;;5006915;28;20041;-63
2024/01/04 06:12:43;;;;;;;4.72;1.65;;;8.30;99.90;;;;;;4990437;28;20030;-63
2024/01/04 06:15:10;;;;;;;5.53;1.85;;;8.30;99.90;;;;;;5005260;28;20370;-60
2024/01/04 06:17:35;;;;;;;4.13;1.80;;;8.30;99.90;;;;;;5010778;28;20121;-61
2024/01/04 06:20:01;;;;;;;5.40;2.42;;;8.30;99.90;;;;;;5008668;28;20037;-61
2024/01/04 06:22:27;;;;;;;3.92;2.28;;;8.30;99.90;;;;;;5009584;28;20030;-60
2024/01/04 06:24:52;;;;;;;4.45;2.75;;;8.30;99.90;;;;;;5008082;28;20029;-63
2024/01/04 06:27:18;;;;;;;12.35;3.22;;;8.30;99.90;;;;;;5012156;28;20065;-60
2024/01/04 06:29:44;;;;;;;8.93;3.08;;;8.30;99.90;;;;;;5005048;28;20096;-61
2024/01/04 06:32:10;;;;;;;6.65;2.70;;;8.30;99.90;;;;;;5008890;28;20014;-62
2024/01/04 06:34:35;;;;;;;8.48;3.17;;;8.30;99.90;;;;;;4984884;28;20033;-63
2024/01/04 06:37:01;;;;;;;6.65;3.78;;;8.30;99.90;;;;;;5011036;28;20024;-62
2024/01/04 06:39:28;;;;;;;8.10;2.55;;;8.30;99.90;;;;;;5007083;28;20104;-62
2024/01/04 06:41:54;;;;;;;5.88;3.22;;;8.30;99.90;;;;;;5008756;28;20077;-61
2024/01/04 06:44:19;;;;;;;9.35;3.03;;;8.30;99.90;;;;;;5006554;28;20030;-59
2024/01/04 06:46:45;;;;;;;5.57;1.90;;;8.30;99.90;;;;;;5008591;28;20056;-60
2024/01/04 06:49:10;;;;;;;4.55;2.38;;;8.30;99.90;;;;;;5007017;28;20029;-59
2024/01/04 06:51:36;;;;;;;4.47;2.58;;;8.30;99.90;;;;;;4991279;28;20060;-62
2024/01/04 06:54:02;;;;;;;4.55;2.45;;;8.30;99.90;;;;;;5005677;28;20477;-62
2024/01/04 06:56:28;;;;;;;4.95;2.40;;;8.30;99.90;;;;;;5007199;28;20080;-62
2024/01/04 06:58:54;;;;;;;2.80;2.08;;;8.30;99.90;;;;;;4988545;28;20042;-60
2024/01/04 07:01:20;;;;;;;6.50;2.05;;;8.20;99.90;;;;;;5006328;28;20090;-59
2024/01/04 07:03:46;;;;;;;8.18;1.80;;;8.20;99.90;;;;;;5006918;28;20034;-60
2024/01/04 07:06:13;;;;;;;5.05;1.63;;;8.20;99.90;;;;;;5010226;28;20040;-61
2024/01/04 07:08:38;;;;;;;4.03;1.60;;;8.20;99.90;;;;;;5002887;28;20038;-60
2024/01/04 07:11:05;;;;;;;3.45;1.38;;;8.20;99.90;;;;;;5006381;28;20021;-61
2024/01/04 07:13:33;;;;;;;3.50;1.38;;;8.20;99.90;;;;;;5007963;28;20025;-58
2024/01/04 07:15:58;;;;;;;5.72;1.30;;;8.20;99.90;;;;;;5007333;28;20038;-61
2024/01/04 07:18:24;;;;;;;6.63;1.80;;;8.20;99.90;;;;;;5009259;28;20029;-59
2024/01/04 07:20:49;;;;;;;2.13;1.38;;;8.10;99.90;;;;;;4999889;28;20026;-59
2024/01/04 07:23:17;;;;;;;5.90;2.00;;;8.20;99.90;;;;;;5004939;28;20083;-56
2024/01/04 07:25:42;;;;;;;6.88;2.00;;;8.20;99.90;;;;;;5003857;28;20029;-58
2024/01/04 07:28:08;;;;;;;2.88;1.75;;;8.20;99.90;;;;;;5008544;28;20022;-59
2024/01/04 07:30:34;;;;;;;3.20;1.90;;;8.30;99.90;;;;;;5003191;28;20021;-60
2024/01/04 07:33:00;;;;;;;4.68;1.80;;;8.30;99.90;;;;;;5007886;28;20042;-59
2024/01/04 07:35:26;;;;;;;5.50;2.08;;;8.40;99.90;;;;;;5006672;28;20025;-60
2024/01/04 07:37:51;;;;;;;13.50;3.42;;;8.30;99.90;;;;;;4984680;28;20033;-56
2024/01/04 07:40:17;;;;;;;11.55;4.40;;;8.30;99.90;;;;;;5006313;28;20029;-59
2024/01/04 07:42:42;;;;;;;9.82;4.63;;;8.30;99.90;;;;;;5005024;28;20032;-59
2024/01/04 07:45:08;;;;;;;12.68;4.00;;;8.30;99.90;;;;;;5001604;28;20058;-57
2024/01/04 07:47:36;;;;;;;8.48;3.33;;;8.30;99.90;;;;;;5006544;28;20505;-59
2024/01/04 07:50:04;;;;;;;5.75;3.80;;;8.30;99.90;;;;;;4998608;28;20029;-59
2024/01/04 07:52:29;;;;;;;6.65;3.80;;;8.30;99.90;;;;;;5007318;28;20040;-58
2024/01/04 07:54:55;;;;;;;9.75;3.53;;;8.30;99.90;;;;;;5002350;28;20026;-58
2024/01/04 07:57:20;;;;;;;7.25;3.33;;;8.40;99.90;;;;;;5008949;28;20014;-57
2024/01/04 07:59:46;;;;;;;8.27;3.78;;;8.40;99.90;;;;;;5004068;28;20515;-57
2024/01/04 08:02:11;;;;;;;9.07;2.97;;;8.40;99.90;;;;;;5005420;28;20467;-57
2024/01/04 08:04:37;;;;;;;12.40;3.35;;;8.50;99.90;;;;;;5007540;28;20579;-56
2024/01/04 08:07:02;;;;;;;12.25;2.85;;;8.50;99.90;;;;;;5003892;28;20400;-57
2024/01/04 08:09:28;;;;;;;5.80;2.45;;;8.60;99.90;;;;;;5003572;28;20066;-59
2024/01/04 08:11:53;;;;;;;24.90;6.50;;;8.60;99.90;;;;;;5007024;28;20030;-58
2024/01/04 08:14:19;;;;;;;13.27;2.50;;;8.70;99.90;;;;;;5001797;28;20087;-57
2024/01/04 08:16:45;;;;;;;5.97;2.38;;;8.60;99.90;;;;;;5006810;28;20438;-55
2024/01/04 08:19:12;;;;;;;6.28;2.33;;;8.60;99.90;;;;;;5006747;28;20029;-57
2024/01/04 08:21:37;;;;;;;9.68;2.40;;;8.70;99.90;;;;;;5004259;28;20492;-54
2024/01/04 08:24:03;;;;;;;8.18;1.85;;;8.70;99.90;;;;;;5000177;28;20031;-58
2024/01/04 08:26:29;;;;;;;15.15;2.28;;;8.70;99.90;;;;;;5005329;28;20447;-59
2024/01/04 08:28:54;;;;;;;7.00;2.08;;;8.70;99.90;;;;;;5003828;28;20579;-56
2024/01/04 08:31:20;;;;;;;11.73;2.25;;;8.70;99.90;;;;;;5006739;28;20027;-56
2024/01/04 08:33:46;;;;;;;11.38;2.30;;;8.80;99.90;;;;;;4987619;28;20076;-59
2024/01/04 08:36:11;;;;;;;5.78;1.88;;;8.80;99.90;;;;;;5005185;28;20065;-59
2024/01/04 08:38:37;;;;;;;15.25;1.90;;;8.90;99.90;;;;;;5005660;28;20033;-57
2024/01/04 08:41:02;;;;;;;7.47;1.65;;;9.00;99.90;;;;;;5000976;28;20019;-55
2024/01/04 08:43:28;;;;;;;5.70;1.63;;;8.90;99.90;;;;;;5001378;28;20082;-57
2024/01/04 08:45:54;;;;;;;10.18;1.90;;;9.00;99.90;;;;;;5001371;28;20528;-56
2024/01/04 08:48:19;;;;;;;14.52;2.15;;;9.00;99.90;;;;;;5002157;28;20026;-57
2024/01/04 08:50:45;;;;;;;11.82;1.77;;;8.90;99.90;;;;;;5004014;28;20104;-58
2024/01/04 08:53:12;;;;;;;9.00;1.90;;;8.90;99.90;;;;;;5005383;28;20042;-60
2024/01/04 08:55:38;;;;;;;5.93;1.73;;;8.90;99.90;;;;;;5002723;28;20054;-59
2024/01/04 08:58:04;;;;;;;8.63;1.92;;;8.90;99.90;;;;;;5003381;28;20054;-58
2024/01/04 09:00:32;;;;;;;11.23;1.48;;;8.90;99.90;;;;;;4999092;28;20078;-58
2024/01/04 09:02:58;;;;;;;9.98;2.25;;;9.00;99.90;;;;;;5003033;28;20109;-57
2024/01/04 09:05:24;;;;;;;9.80;2.17;;;9.00;99.90;;;;;;5005874;28;20121;-59
2024/01/04 09:07:50;;;;;;;10.27;2.05;;;9.10;99.90;;;;;;5004345;28;20464;-56
2024/01/04 09:10:15;;;;;;;9.57;2.35;;;9.10;99.90;;;;;;5005425;28;20105;-55
2024/01/04 09:12:42;;;;;;;6.10;1.77;;;9.10;99.90;;;;;;5003945;28;20022;-59
2024/01/04 09:15:08;;;;;;;9.25;1.77;;;9.10;99.90;;;;;;5002148;28;20014;-57
2024/01/04 09:17:34;;;;;;;6.95;1.70;;;9.20;99.90;;;;;;5003071;28;20080;-59
2024/01/04 09:19:59;;;;;;;5.20;1.90;;;9.20;99.90;;;;;;5003457;28;20112;-59
2024/01/04 09:22:25;;;;;;;9.13;1.52;;;9.20;99.90;;;;;;5004205;28;20037;-58
2024/01/04 09:24:51;;;;;;;8.55;1.60;;;9.30;99.90;;;;;;5003629;28;20030;-58
2024/01/04 09:27:16;;;;;;;8.50;1.60;;;9.30;99.90;;;;;;5008917;28;20053;-56
2024/01/04 09:29:44;;;;;;;3.05;1.60;;;9.40;99.90;;;;;;5003807;28;20068;-58
2024/01/04 09:32:09;;;;;;;6.97;1.48;;;9.40;99.90;;;;;;5006983;28;20145;-59
2024/01/04 09:34:35;;;;;;;10.70;1.67;;;9.40;99.90;;;;;;5010242;28;20097;-57
2024/01/04 09:37:01;;;;;;;3.55;1.58;;;9.40;99.90;;;;;;5010758;28;20057;-59
2024/01/04 09:39:26;;;;;;;10.15;1.50;;;9.50;99.90;;;;;;5007911;28;20081;-58
2024/01/04 09:41:53;;;;;;;2.60;1.15;;;9.50;99.90;;;;;;5008537;28;20433;-56
2024/01/04 09:44:19;;;;;;;6.00;1.40;;;9.60;99.90;;;;;;5009197;28;20113;-58
2024/01/04 09:46:45;;;;;;;5.13;1.00;;;9.60;99.90;;;;;;5005647;28;20120;-58
2024/01/04 09:49:11;;;;;;;8.48;1.10;;;9.70;99.90;;;;;;5004852;28;20618;-56
2024/01/04 09:51:38;;;;;;;8.02;2.22;;;9.70;99.90;;;;;;5005425;28;20674;-56
2024/01/04 09:54:09;;;;;;;3.20;1.55;;;9.70;99.90;;;;;;5003680;28;20029;-58
2024/01/04 09:56:47;;;;;;;6.72;1.38;;;9.60;99.90;;;;;;5007689;28;20109;-58
2024/01/04 09:59:13;;;;;;;5.03;1.38;;;9.50;99.90;;;;;;5001194;28;20030;-59
2024/01/04 10:01:39;;;;;;;5.88;1.60;;;9.40;99.90;;;;;;5006891;28;20041;-58
2024/01/04 10:04:07;;;;;;;2.80;1.40;;;9.40;99.90;;;;;;5008055;28;20105;-58
2024/01/04 10:06:34;;;;;;;6.40;1.75;;;9.40;99.90;;;;;;4990396;28;20080;-56
2024/01/04 10:09:26;;;;;;;8.52;2.10;;;9.40;99.90;;;;;;5004701;28;20120;-57
2024/01/04 10:11:54;;;;;;;10.40;2.40;;;9.40;99.90;;;;;;4975964;28;20042;-59
2024/01/04 10:14:22;;;;;;;5.82;1.60;;;9.50;99.90;;;;;;5004132;28;20015;-58
2024/01/04 10:16:48;;;;;;;3.97;1.50;;;9.50;99.90;;;;;;5004653;28;20026;-59
2024/01/04 10:19:14;;;;;;;5.43;1.65;;;9.50;99.90;;;;;;5006500;28;21855;-59
2024/01/04 10:21:39;;;;;;;9.18;1.83;;;9.60;99.90;;;;;;5010446;28;20061;-59
2024/01/04 10:24:05;;;;;;;7.43;1.48;;;9.60;99.90;;;;;;5002046;28;20056;-58
2024/01/04 10:26:32;;;;;;;5.78;1.67;;;9.60;99.90;;;;;;5008872;28;20029;-58
2024/01/04 10:29:02;;;;;;;7.30;1.98;;;9.70;99.90;;;;;;5008221;28;20862;-57
2024/01/04 10:31:27;;;;;;;6.43;1.38;;;9.70;99.90;;;;;;5004961;28;20049;-57
2024/01/04 10:33:58;;;;;;;6.00;2.13;;;9.70;99.90;;;;;;5002873;28;20030;-60
2024/01/04 10:36:25;;;;;;;5.63;1.55;;;9.70;99.90;;;;;;5004328;28;20103;-59
2024/01/04 10:38:50;;;;;;;6.72;1.73;;;9.70;99.90;;;;;;5007536;28;20065;-58
2024/01/04 10:41:17;;;;;;;5.30;1.77;;;9.80;99.90;;;;;;5006052;28;20057;-58
2024/01/04 10:43:43;;;;;;;4.50;1.58;;;9.80;99.90;;;;;;5006843;28;20037;-59
2024/01/04 10:46:09;;;;;;;9.85;1.73;;;9.80;99.90;;;;;;5003931;28;20030;-60
2024/01/04 10:48:38;;;;;;;10.95;1.83;;;9.90;99.90;;;;;;5004393;28;20058;-55
2024/01/04 10:51:05;;;;;;;7.63;1.60;;;9.90;99.90;;;;;;5004602;28;20084;-59
2024/01/04 10:53:35;;;;;;;12.93;2.03;;;9.90;99.90;;;;;;5005681;28;20053;-58
2024/01/04 10:56:06;;;;;;;11.38;1.90;;;9.90;99.90;;;;;;5001265;28;20018;-59
2024/01/04 10:58:35;;;;;;;8.07;1.50;;;9.90;99.90;;;;;;5000705;28;20064;-59
2024/01/04 11:01:02;;;;;;;7.72;1.85;;;9.90;99.90;;;;;;5001467;28;20018;-61
2024/01/04 11:03:31;;;;;;;9.55;1.40;;;10.00;99.90;;;;;;5001102;28;20045;-60
2024/01/04 11:05:59;;;;;;;8.40;1.45;;;10.00;99.90;;;;;;5003097;28;20040;-61
2024/01/04 11:08:25;;;;;;;5.57;1.02;;;9.90;99.90;;;;;;5000551;28;20077;-61
2024/01/04 11:10:52;;;;;;;8.07;1.35;;;9.90;99.90;;;;;;5004473;28;20423;-61
2024/01/04 11:13:18;;;;;;;7.72;1.50;;;9.90;99.90;;;;;;5002184;28;20037;-62
2024/01/04 11:15:44;;;;;;;6.75;1.67;;;9.90;99.90;;;;;;5004179;28;20077;-61
2024/01/04 11:18:26;;;;;;;17.45;2.83;;;9.90;99.90;;;;;;4999771;28;20033;-61
2024/01/04 11:21:21;;;;;;;11.75;1.75;;;9.80;99.90;;;;;;4998836;28;20034;-60
2024/01/04 11:24:05;;;;;;;17.15;2.03;;;9.80;99.90;;;;;;4918099;28;20048;-61
2024/01/04 11:26:44;;;;;;;15.80;1.73;;;9.70;99.90;;;;;;5003925;28;20144;-61
2024/01/04 11:29:10;;;;;;;19.58;2.50;;;9.70;99.90;;;;;;5002022;28;20029;-61
2024/01/04 11:31:42;;;;;;;18.25;2.92;;;9.70;99.90;;;;;;5001378;28;20399;-63
2024/01/04 11:34:15;;;;;;;17.88;2.67;;;9.60;99.90;;;;;;4980120;28;20049;-63
2024/01/04 11:36:41;;;;;;;10.10;1.98;;;9.60;99.90;;;;;;5001892;28;20034;-61
2024/01/04 11:39:07;;;;;;;12.52;2.50;;;9.60;99.90;;;;;;5005206;28;20246;-60
2024/01/04 11:41:34;;;;;;;18.33;2.92;;;9.70;99.90;;;;;;5002177;28;20078;-61
2024/01/04 11:44:00;;;;;;;19.65;3.15;;;9.60;99.90;;;;;;4979229;28;20660;-61
2024/01/04 11:46:26;;;;;;;20.08;2.35;;;9.60;99.90;;;;;;5003377;28;20030;-63
2024/01/04 11:48:55;;;;;;;16.45;2.83;;;9.70;99.90;;;;;;5012530;28;20532;-61
2024/01/04 11:51:44;;;;;;;20.85;2.47;;;9.70;99.90;;;;;;4994690;28;20087;-62
2024/01/04 11:54:12;;;;;;;28.95;2.83;;;9.70;99.90;;;;;;4999562;28;20049;-60
2024/01/04 11:56:38;;;;;;;24.55;3.08;;;9.80;99.90;;;;;;5000558;28;20030;-62
2024/01/04 11:59:07;;;;;;;18.10;3.33;;;9.80;99.90;;;;;;4999624;28;20029;-61
2024/01/04 12:01:36;;;;;;;21.08;2.95;;;9.80;99.90;;;;;;5004683;28;20529;-61
2024/01/04 12:04:08;;;;;;;27.50;3.50;;;9.80;99.90;;;;;;5001465;28;20021;-61
2024/01/04 12:06:38;;;;;;;24.55;2.70;;;9.70;99.90;;;;;;5011306;28;20034;-60
2024/01/04 12:09:06;;;;;;;17.17;2.72;;;9.70;99.90;;;;;;4997902;28;20125;-62
2024/01/04 12:11:32;;;;;;;18.42;2.88;;;9.70;99.90;;;;;;4998156;28;20030;-61
2024/01/04 12:14:01;;;;;;;22.52;3.38;;;9.70;99.90;;;;;;5000297;28;20029;-62
2024/01/04 12:16:27;;;;;;;30.90;2.75;;;9.60;99.90;;;;;;5007044;28;22522;-60
2024/01/04 12:18:53;;;;;;;29.35;3.17;;;9.60;99.90;;;;;;4996837;28;20431;-62
2024/01/04 12:21:18;;;;;;;17.27;2.70;;;9.60;99.90;;;;;;5001094;28;20550;-61
2024/01/04 12:23:45;;;;;;;24.30;2.90;;;9.60;99.90;;;;;;5003756;28;20478;-62
2024/01/04 12:26:10;;;;;;;24.15;2.80;;;9.70;99.90;;;;;;5003230;28;20033;-60
2024/01/04 12:28:36;;;;;;;19.50;3.75;;;9.90;99.90;;;;;;5004266;28;20088;-58
2024/01/04 12:31:02;;;;;;;25.20;3.33;;;10.10;99.90;;;;;;5011373;28;20446;-58
2024/01/04 12:33:31;;;;;;;25.95;3.03;;;10.10;99.90;;;;;;5005302;28;20160;-60
2024/01/04 12:36:00;;;;;;;20.98;3.35;;;10.10;99.90;;;;;;5013880;28;20044;-61
2024/01/04 12:38:26;;;;;;;27.25;2.72;;;10.20;99.90;;;;;;4998696;28;20040;-60
2024/01/04 12:40:52;;;;;;;17.73;3.08;;;10.10;99.90;;;;;;5007143;28;20033;-60
2024/01/04 12:43:20;;;;;;;22.73;2.55;;;10.10;99.90;;;;;;4996923;28;20032;-60
2024/01/04 12:45:46;;;;;;;16.50;2.67;;;10.00;99.90;;;;;;4997917;28;20038;-61
2024/01/04 12:48:12;;;;;;;16.73;2.35;;;10.00;99.90;;;;;;5002963;28;20508;-60